GMMW

Nador International Airport

Nador, Morocco
METAR GMMW 260300Z 26003KT CAVOK 07/04 Q1010 NOSIG
Observed Flight Rules
Feb-26 @ 03:00 UTC (29 minutes ago) Visual Flight Rules
Wind Visibility Clouds
260° at 3 knots 10,000+ meters
  • Clear skies
Temperatures Readings
Current 7°C / 45°F
Dewpoint 4°C / 39°F
Humidity 81%
Altimeter 29.82" Hg
Pressure 1010 hPa
Elevation 175
METAR GMMW 260300Z 26003KT CAVOK 07/04 Q1010 NOSIG
Observed Flight Rules
Feb-26 @ 03:00 UTC
(29 minutes ago)
VFR
Wind Visibility
260° at 3 knots 10,000+ meters
Clouds
  • Clear skies
Temperature Dewpoint
7°C / 45°F 4°C / 39°F
Humidity Altimeter Pressure
81% 29.82" Hg 1010 hPa